sensor_id;sensor_type;location;lat;lon;timestamp;P1;durP1;ratioP1;P2;durP2;ratioP2
37485;SDS011;23341;50.296;18.960;2023-02-01T00:00:06;24.55;;;15.55;;
37485;SDS011;23341;50.296;18.960;2023-02-01T00:05:30;33.67;;;18.15;;
37485;SDS011;23341;50.296;18.960;2023-02-01T00:10:35;29.95;;;15.73;;
37485;SDS011;23341;50.296;18.960;2023-02-01T00:15:39;33.00;;;16.25;;
37485;SDS011;23341;50.296;18.960;2023-02-01T00:20:45;25.60;;;14.43;;
37485;SDS011;23341;50.296;18.960;2023-02-01T00:25:50;24.70;;;13.07;;
37485;SDS011;23341;50.296;18.960;2023-02-01T00:30:56;21.25;;;12.70;;
37485;SDS011;23341;50.296;18.960;2023-02-01T00:36:01;17.80;;;10.88;;
37485;SDS011;23341;50.296;18.960;2023-02-01T00:41:09;15.70;;;11.10;;
37485;SDS011;23341;50.296;18.960;2023-02-01T00:46:15;15.85;;;11.18;;
37485;SDS011;23341;50.296;18.960;2023-02-01T00:51:20;23.75;;;16.73;;
37485;SDS011;23341;50.296;18.960;2023-02-01T00:56:27;14.18;;;10.23;;
37485;SDS011;23341;50.296;18.960;2023-02-01T01:01:31;18.23;;;9.93;;
37485;SDS011;23341;50.296;18.960;2023-02-01T01:06:35;22.55;;;11.23;;
37485;SDS011;23341;50.296;18.960;2023-02-01T01:11:40;11.07;;;5.45;;
37485;SDS011;23341;50.296;18.960;2023-02-01T01:16:44;8.95;;;5.75;;
37485;SDS011;23341;50.296;18.960;2023-02-01T01:21:47;6.28;;;4.55;;
37485;SDS011;23341;50.296;18.960;2023-02-01T01:26:52;7.70;;;5.30;;
37485;SDS011;23341;50.296;18.960;2023-02-01T01:31:56;13.07;;;4.90;;
37485;SDS011;23341;50.296;18.960;2023-02-01T01:37:00;5.43;;;2.20;;
37485;SDS011;23341;50.296;18.960;2023-02-01T01:42:05;7.45;;;2.90;;
37485;SDS011;23341;50.296;18.960;2023-02-01T01:47:09;6.50;;;2.80;;
37485;SDS011;23341;50.296;18.960;2023-02-01T01:52:13;5.50;;;2.10;;
37485;SDS011;23341;50.296;18.960;2023-02-01T01:57:19;6.13;;;3.38;;
37485;SDS011;23341;50.296;18.960;2023-02-01T02:02:28;4.97;;;3.80;;
37485;SDS011;23341;50.296;18.960;2023-02-01T02:07:34;8.68;;;3.65;;
37485;SDS011;23341;50.296;18.960;2023-02-01T02:12:42;4.00;;;2.53;;
37485;SDS011;23341;50.296;18.960;2023-02-01T02:17:49;9.07;;;3.40;;
37485;SDS011;23341;50.296;18.960;2023-02-01T02:23:18;34.92;;;14.90;;
37485;SDS011;23341;50.296;18.960;2023-02-01T02:28:49;25.80;;;10.43;;
37485;SDS011;23341;50.296;18.960;2023-02-01T02:34:19;11.02;;;5.90;;
37485;SDS011;23341;50.296;18.960;2023-02-01T02:39:32;14.55;;;6.28;;
37485;SDS011;23341;50.296;18.960;2023-02-01T02:44:45;5.38;;;4.00;;
37485;SDS011;23341;50.296;18.960;2023-02-01T02:50:12;11.15;;;6.53;;
37485;SDS011;23341;50.296;18.960;2023-02-01T02:55:40;8.80;;;4.20;;
37485;SDS011;23341;50.296;18.960;2023-02-01T03:08:02;5.97;;;3.40;;
37485;SDS011;23341;50.296;18.960;2023-02-01T03:13:08;7.68;;;4.00;;
37485;SDS011;23341;50.296;18.960;2023-02-01T03:18:16;11.67;;;8.10;;
37485;SDS011;23341;50.296;18.960;2023-02-01T03:23:27;22.77;;;12.27;;
37485;SDS011;23341;50.296;18.960;2023-02-01T03:28:34;11.10;;;7.13;;
37485;SDS011;23341;50.296;18.960;2023-02-01T03:33:43;8.85;;;4.78;;
37485;SDS011;23341;50.296;18.960;2023-02-01T03:38:50;27.13;;;10.52;;
37485;SDS011;23341;50.296;18.960;2023-02-01T03:44:01;14.90;;;6.68;;
37485;SDS011;23341;50.296;18.960;2023-02-01T03:49:10;19.25;;;8.88;;
37485;SDS011;23341;50.296;18.960;2023-02-01T03:54:22;18.48;;;6.78;;
37485;SDS011;23341;50.296;18.960;2023-02-01T03:59:27;16.13;;;7.10;;
37485;SDS011;23341;50.296;18.960;2023-02-01T04:04:31;6.28;;;4.13;;
37485;SDS011;23341;50.296;18.960;2023-02-01T04:09:37;8.02;;;3.08;;
37485;SDS011;23341;50.296;18.960;2023-02-01T04:14:41;7.75;;;3.35;;
37485;SDS011;23341;50.296;18.960;2023-02-01T04:19:45;7.70;;;5.03;;
37485;SDS011;23341;50.296;18.960;2023-02-01T04:24:50;8.07;;;6.40;;
37485;SDS011;23341;50.296;18.960;2023-02-01T04:29:53;15.02;;;9.55;;
37485;SDS011;23341;50.296;18.960;2023-02-01T04:34:59;15.23;;;10.20;;
37485;SDS011;23341;50.296;18.960;2023-02-01T04:40:05;13.00;;;8.88;;
37485;SDS011;23341;50.296;18.960;2023-02-01T04:45:10;11.63;;;7.22;;
37485;SDS011;23341;50.296;18.960;2023-02-01T04:50:14;15.48;;;7.88;;
37485;SDS011;23341;50.296;18.960;2023-02-01T04:55:19;17.63;;;9.30;;
37485;SDS011;23341;50.296;18.960;2023-02-01T05:00:23;17.17;;;10.38;;
37485;SDS011;23341;50.296;18.960;2023-02-01T05:05:27;13.55;;;8.20;;
37485;SDS011;23341;50.296;18.960;2023-02-01T05:10:32;18.48;;;9.40;;
37485;SDS011;23341;50.296;18.960;2023-02-01T05:15:36;15.48;;;10.23;;
37485;SDS011;23341;50.296;18.960;2023-02-01T05:20:40;24.65;;;11.07;;
37485;SDS011;23341;50.296;18.960;2023-02-01T05:25:45;29.90;;;14.23;;
37485;SDS011;23341;50.296;18.960;2023-02-01T05:30:48;23.20;;;12.18;;
37485;SDS011;23341;50.296;18.960;2023-02-01T05:35:52;20.73;;;11.13;;
37485;SDS011;23341;50.296;18.960;2023-02-01T05:40:57;18.77;;;10.07;;
37485;SDS011;23341;50.296;18.960;2023-02-01T05:46:01;21.80;;;14.25;;
37485;SDS011;23341;50.296;18.960;2023-02-01T05:51:05;22.60;;;12.45;;
37485;SDS011;23341;50.296;18.960;2023-02-01T05:56:10;25.98;;;13.25;;
37485;SDS011;23341;50.296;18.960;2023-02-01T06:01:14;21.65;;;9.38;;
37485;SDS011;23341;50.296;18.960;2023-02-01T06:06:17;38.10;;;14.40;;
37485;SDS011;23341;50.296;18.960;2023-02-01T06:11:23;37.92;;;14.55;;
37485;SDS011;23341;50.296;18.960;2023-02-01T06:16:34;94.75;;;37.20;;
37485;SDS011;23341;50.296;18.960;2023-02-01T06:21:38;42.70;;;13.95;;
37485;SDS011;23341;50.296;18.960;2023-02-01T06:26:43;25.50;;;11.23;;
37485;SDS011;23341;50.296;18.960;2023-02-01T07:08:13;23.75;;;11.30;;
37485;SDS011;23341;50.296;18.960;2023-02-01T07:13:16;24.02;;;13.30;;
37485;SDS011;23341;50.296;18.960;2023-02-01T07:18:20;34.40;;;17.23;;
37485;SDS011;23341;50.296;18.960;2023-02-01T07:23:25;56.38;;;22.83;;
37485;SDS011;23341;50.296;18.960;2023-02-01T07:28:36;28.88;;;12.15;;
37485;SDS011;23341;50.296;18.960;2023-02-01T07:33:41;36.33;;;13.55;;
37485;SDS011;23341;50.296;18.960;2023-02-01T07:38:47;27.65;;;13.00;;
37485;SDS011;23341;50.296;18.960;2023-02-01T07:43:52;33.08;;;14.60;;
37485;SDS011;23341;50.296;18.960;2023-02-01T07:48:56;38.97;;;13.75;;
37485;SDS011;23341;50.296;18.960;2023-02-01T07:54:03;31.05;;;12.98;;
37485;SDS011;23341;50.296;18.960;2023-02-01T07:59:10;30.07;;;13.60;;
37485;SDS011;23341;50.296;18.960;2023-02-01T08:04:14;29.60;;;14.80;;
37485;SDS011;23341;50.296;18.960;2023-02-01T08:09:19;32.85;;;14.20;;
37485;SDS011;23341;50.296;18.960;2023-02-01T08:14:23;29.55;;;14.70;;
37485;SDS011;23341;50.296;18.960;2023-02-01T08:19:26;45.28;;;18.88;;
37485;SDS011;23341;50.296;18.960;2023-02-01T08:24:31;37.00;;;18.73;;
37485;SDS011;23341;50.296;18.960;2023-02-01T08:29:35;29.58;;;14.82;;
37485;SDS011;23341;50.296;18.960;2023-02-01T08:34:39;50.83;;;23.02;;
37485;SDS011;23341;50.296;18.960;2023-02-01T08:39:43;65.60;;;29.10;;
37485;SDS011;23341;50.296;18.960;2023-02-01T08:44:48;41.33;;;17.38;;
37485;SDS011;23341;50.296;18.960;2023-02-01T08:49:52;39.38;;;16.42;;
37485;SDS011;23341;50.296;18.960;2023-02-01T08:54:57;51.03;;;20.02;;
37485;SDS011;23341;50.296;18.960;2023-02-01T09:00:01;62.85;;;25.95;;
37485;SDS011;23341;50.296;18.960;2023-02-01T09:05:06;59.25;;;27.50;;
37485;SDS011;23341;50.296;18.960;2023-02-01T09:10:13;51.17;;;23.65;;
37485;SDS011;23341;50.296;18.960;2023-02-01T09:15:21;35.33;;;17.42;;
37485;SDS011;23341;50.296;18.960;2023-02-01T09:20:25;35.10;;;14.70;;
37485;SDS011;23341;50.296;18.960;2023-02-01T09:25:30;35.95;;;14.68;;
37485;SDS011;23341;50.296;18.960;2023-02-01T09:30:35;59.65;;;24.77;;
37485;SDS011;23341;50.296;18.960;2023-02-01T09:35:39;78.55;;;30.90;;
37485;SDS011;23341;50.296;18.960;2023-02-01T09:40:45;51.90;;;22.67;;
37485;SDS011;23341;50.296;18.960;2023-02-01T09:45:51;34.50;;;17.63;;
37485;SDS011;23341;50.296;18.960;2023-02-01T09:51:04;34.72;;;18.02;;
37485;SDS011;23341;50.296;18.960;2023-02-01T09:56:15;37.58;;;17.30;;
37485;SDS011;23341;50.296;18.960;2023-02-01T10:01:24;34.75;;;16.58;;
37485;SDS011;23341;50.296;18.960;2023-02-01T10:11:58;89.78;;;38.05;;
37485;SDS011;23341;50.296;18.960;2023-02-01T10:17:16;54.80;;;22.77;;
37485;SDS011;23341;50.296;18.960;2023-02-01T10:22:33;58.42;;;30.67;;
37485;SDS011;23341;50.296;18.960;2023-02-01T10:28:06;46.25;;;21.35;;
37485;SDS011;23341;50.296;18.960;2023-02-01T10:33:17;53.92;;;23.77;;
37485;SDS011;23341;50.296;18.960;2023-02-01T10:38:27;34.38;;;15.50;;
37485;SDS011;23341;50.296;18.960;2023-02-01T10:43:34;47.00;;;24.88;;
37485;SDS011;23341;50.296;18.960;2023-02-01T10:48:38;37.28;;;19.40;;
37485;SDS011;23341;50.296;18.960;2023-02-01T10:53:44;36.00;;;19.50;;
37485;SDS011;23341;50.296;18.960;2023-02-01T10:58:59;64.75;;;20.67;;
37485;SDS011;23341;50.296;18.960;2023-02-01T11:04:04;37.95;;;17.48;;
37485;SDS011;23341;50.296;18.960;2023-02-01T11:09:14;29.73;;;14.10;;
37485;SDS011;23341;50.296;18.960;2023-02-01T11:14:32;56.50;;;21.13;;
37485;SDS011;23341;50.296;18.960;2023-02-01T11:19:43;50.38;;;19.75;;
37485;SDS011;23341;50.296;18.960;2023-02-01T11:24:47;47.72;;;22.60;;
37485;SDS011;23341;50.296;18.960;2023-02-01T11:29:54;42.83;;;18.27;;
37485;SDS011;23341;50.296;18.960;2023-02-01T11:35:04;36.20;;;16.38;;
37485;SDS011;23341;50.296;18.960;2023-02-01T11:40:22;27.23;;;14.32;;
37485;SDS011;23341;50.296;18.960;2023-02-01T11:45:30;21.80;;;14.80;;
37485;SDS011;23341;50.296;18.960;2023-02-01T11:50:37;13.00;;;9.52;;
37485;SDS011;23341;50.296;18.960;2023-02-01T11:55:50;18.42;;;9.15;;
37485;SDS011;23341;50.296;18.960;2023-02-01T12:01:05;16.80;;;8.18;;
37485;SDS011;23341;50.296;18.960;2023-02-01T12:06:17;14.88;;;9.25;;
37485;SDS011;23341;50.296;18.960;2023-02-01T12:11:34;18.27;;;12.80;;
37485;SDS011;23341;50.296;18.960;2023-02-01T12:16:51;45.20;;;17.73;;
37485;SDS011;23341;50.296;18.960;2023-02-01T12:22:14;36.72;;;16.55;;
37485;SDS011;23341;50.296;18.960;2023-02-01T12:27:41;48.83;;;19.17;;
37485;SDS011;23341;50.296;18.960;2023-02-01T12:32:59;20.42;;;12.05;;
37485;SDS011;23341;50.296;18.960;2023-02-01T12:38:17;24.65;;;11.98;;
37485;SDS011;23341;50.296;18.960;2023-02-01T12:43:36;35.90;;;17.90;;
37485;SDS011;23341;50.296;18.960;2023-02-01T12:48:48;65.10;;;30.30;;
37485;SDS011;23341;50.296;18.960;2023-02-01T12:54:00;35.60;;;19.27;;
37485;SDS011;23341;50.296;18.960;2023-02-01T12:59:10;29.60;;;15.97;;
37485;SDS011;23341;50.296;18.960;2023-02-01T13:04:26;18.77;;;10.00;;
37485;SDS011;23341;50.296;18.960;2023-02-01T13:09:35;14.45;;;10.05;;
37485;SDS011;23341;50.296;18.960;2023-02-01T13:14:44;14.07;;;7.03;;
37485;SDS011;23341;50.296;18.960;2023-02-01T13:19:54;21.17;;;10.60;;
37485;SDS011;23341;50.296;18.960;2023-02-01T13:25:01;20.02;;;11.05;;
37485;SDS011;23341;50.296;18.960;2023-02-01T13:30:11;26.30;;;13.95;;
37485;SDS011;23341;50.296;18.960;2023-02-01T13:35:31;38.95;;;21.95;;
37485;SDS011;23341;50.296;18.960;2023-02-01T13:40:46;26.98;;;16.25;;
37485;SDS011;23341;50.296;18.960;2023-02-01T13:46:02;28.92;;;16.95;;
37485;SDS011;23341;50.296;18.960;2023-02-01T13:51:10;27.90;;;17.17;;
37485;SDS011;23341;50.296;18.960;2023-02-01T13:56:17;17.00;;;10.32;;
37485;SDS011;23341;50.296;18.960;2023-02-01T14:01:33;37.10;;;17.92;;
37485;SDS011;23341;50.296;18.960;2023-02-01T14:06:40;27.73;;;15.98;;
37485;SDS011;23341;50.296;18.960;2023-02-01T14:11:47;38.40;;;19.05;;
37485;SDS011;23341;50.296;18.960;2023-02-01T14:22:43;24.83;;;16.80;;
37485;SDS011;23341;50.296;18.960;2023-02-01T14:27:48;35.83;;;23.08;;
37485;SDS011;23341;50.296;18.960;2023-02-01T14:32:52;29.20;;;19.35;;
37485;SDS011;23341;50.296;18.960;2023-02-01T14:38:03;52.25;;;30.23;;
37485;SDS011;23341;50.296;18.960;2023-02-01T14:43:13;45.17;;;23.63;;
37485;SDS011;23341;50.296;18.960;2023-02-01T14:48:44;84.68;;;43.30;;
37485;SDS011;23341;50.296;18.960;2023-02-01T14:53:51;51.92;;;31.70;;
37485;SDS011;23341;50.296;18.960;2023-02-01T14:58:56;46.70;;;28.63;;
37485;SDS011;23341;50.296;18.960;2023-02-01T15:04:08;83.28;;;44.78;;
37485;SDS011;23341;50.296;18.960;2023-02-01T15:09:16;75.10;;;46.38;;
37485;SDS011;23341;50.296;18.960;2023-02-01T15:14:23;76.30;;;44.72;;
37485;SDS011;23341;50.296;18.960;2023-02-01T15:19:27;77.75;;;46.92;;
37485;SDS011;23341;50.296;18.960;2023-02-01T15:24:35;57.40;;;33.35;;
37485;SDS011;23341;50.296;18.960;2023-02-01T15:29:40;51.97;;;31.95;;
37485;SDS011;23341;50.296;18.960;2023-02-01T15:34:44;62.80;;;36.78;;
37485;SDS011;23341;50.296;18.960;2023-02-01T15:40:04;47.22;;;30.33;;
37485;SDS011;23341;50.296;18.960;2023-02-01T15:45:21;51.47;;;33.92;;
37485;SDS011;23341;50.296;18.960;2023-02-01T15:50:32;70.90;;;39.60;;
37485;SDS011;23341;50.296;18.960;2023-02-01T15:55:38;62.33;;;37.33;;
37485;SDS011;23341;50.296;18.960;2023-02-01T16:00:45;72.40;;;42.28;;
37485;SDS011;23341;50.296;18.960;2023-02-01T16:05:54;60.47;;;37.67;;
37485;SDS011;23341;50.296;18.960;2023-02-01T16:11:14;34.47;;;21.30;;
37485;SDS011;23341;50.296;18.960;2023-02-01T16:16:25;39.20;;;23.15;;
37485;SDS011;23341;50.296;18.960;2023-02-01T16:21:31;51.17;;;28.70;;
37485;SDS011;23341;50.296;18.960;2023-02-01T16:26:36;58.33;;;30.80;;
37485;SDS011;23341;50.296;18.960;2023-02-01T16:31:40;63.03;;;39.20;;
37485;SDS011;23341;50.296;18.960;2023-02-01T16:36:49;62.00;;;39.30;;
37485;SDS011;23341;50.296;18.960;2023-02-01T16:41:55;101.03;;;56.70;;
37485;SDS011;23341;50.296;18.960;2023-02-01T16:47:02;80.65;;;46.22;;
37485;SDS011;23341;50.296;18.960;2023-02-01T16:52:08;109.93;;;64.40;;
37485;SDS011;23341;50.296;18.960;2023-02-01T16:57:19;80.45;;;39.67;;
37485;SDS011;23341;50.296;18.960;2023-02-01T17:02:31;68.85;;;33.05;;
37485;SDS011;23341;50.296;18.960;2023-02-01T17:07:43;67.40;;;35.40;;
37485;SDS011;23341;50.296;18.960;2023-02-01T17:12:48;59.05;;;32.83;;
37485;SDS011;23341;50.296;18.960;2023-02-01T17:17:52;57.85;;;33.00;;
37485;SDS011;23341;50.296;18.960;2023-02-01T17:22:58;53.45;;;25.40;;
37485;SDS011;23341;50.296;18.960;2023-02-01T17:28:04;62.95;;;30.63;;
37485;SDS011;23341;50.296;18.960;2023-02-01T17:33:11;83.07;;;46.53;;
37485;SDS011;23341;50.296;18.960;2023-02-01T17:38:24;48.58;;;29.70;;
37485;SDS011;23341;50.296;18.960;2023-02-01T17:43:29;43.47;;;26.38;;
37485;SDS011;23341;50.296;18.960;2023-02-01T17:48:33;48.63;;;27.98;;
37485;SDS011;23341;50.296;18.960;2023-02-01T17:53:36;49.05;;;26.50;;
37485;SDS011;23341;50.296;18.960;2023-02-01T17:58:58;51.70;;;26.30;;
37485;SDS011;23341;50.296;18.960;2023-02-01T18:04:05;66.47;;;34.75;;
37485;SDS011;23341;50.296;18.960;2023-02-01T18:09:09;74.50;;;35.38;;
37485;SDS011;23341;50.296;18.960;2023-02-01T18:14:14;67.05;;;29.00;;
37485;SDS011;23341;50.296;18.960;2023-02-01T18:19:18;92.90;;;47.35;;
37485;SDS011;23341;50.296;18.960;2023-02-01T18:24:25;93.22;;;45.35;;
37485;SDS011;23341;50.296;18.960;2023-02-01T18:29:30;151.60;;;75.82;;
37485;SDS011;23341;50.296;18.960;2023-02-01T18:34:34;86.25;;;51.67;;
37485;SDS011;23341;50.296;18.960;2023-02-01T18:39:38;96.63;;;55.22;;
37485;SDS011;23341;50.296;18.960;2023-02-01T18:44:43;74.57;;;46.58;;
37485;SDS011;23341;50.296;18.960;2023-02-01T18:49:46;45.55;;;27.02;;
37485;SDS011;23341;50.296;18.960;2023-02-01T18:54:52;49.50;;;25.42;;
37485;SDS011;23341;50.296;18.960;2023-02-01T19:00:03;60.35;;;31.77;;
37485;SDS011;23341;50.296;18.960;2023-02-01T19:05:09;62.67;;;34.45;;
37485;SDS011;23341;50.296;18.960;2023-02-01T19:10:15;106.38;;;60.03;;
37485;SDS011;23341;50.296;18.960;2023-02-01T19:15:22;74.55;;;39.40;;
37485;SDS011;23341;50.296;18.960;2023-02-01T19:20:30;94.60;;;52.45;;
37485;SDS011;23341;50.296;18.960;2023-02-01T19:25:41;123.90;;;70.17;;
37485;SDS011;23341;50.296;18.960;2023-02-01T19:31:03;96.35;;;55.55;;
37485;SDS011;23341;50.296;18.960;2023-02-01T19:36:10;53.15;;;27.55;;
37485;SDS011;23341;50.296;18.960;2023-02-01T19:41:14;74.47;;;42.72;;
37485;SDS011;23341;50.296;18.960;2023-02-01T19:46:27;69.47;;;37.40;;
37485;SDS011;23341;50.296;18.960;2023-02-01T19:51:45;75.03;;;41.78;;
37485;SDS011;23341;50.296;18.960;2023-02-01T19:56:55;77.18;;;45.60;;
37485;SDS011;23341;50.296;18.960;2023-02-01T20:02:04;63.67;;;32.28;;
37485;SDS011;23341;50.296;18.960;2023-02-01T20:07:07;66.78;;;33.17;;
37485;SDS011;23341;50.296;18.960;2023-02-01T20:12:14;102.10;;;50.78;;
37485;SDS011;23341;50.296;18.960;2023-02-01T20:17:19;74.32;;;45.97;;
37485;SDS011;23341;50.296;18.960;2023-02-01T20:22:23;68.95;;;38.03;;
37485;SDS011;23341;50.296;18.960;2023-02-01T20:27:27;78.28;;;42.28;;
37485;SDS011;23341;50.296;18.960;2023-02-01T20:37:37;139.35;;;69.63;;
37485;SDS011;23341;50.296;18.960;2023-02-01T20:42:41;97.28;;;47.72;;
37485;SDS011;23341;50.296;18.960;2023-02-01T20:47:49;85.47;;;42.53;;
37485;SDS011;23341;50.296;18.960;2023-02-01T20:52:53;65.85;;;35.97;;
37485;SDS011;23341;50.296;18.960;2023-02-01T20:57:57;61.85;;;32.95;;
37485;SDS011;23341;50.296;18.960;2023-02-01T21:03:03;51.58;;;28.25;;
37485;SDS011;23341;50.296;18.960;2023-02-01T21:08:07;68.03;;;37.38;;
37485;SDS011;23341;50.296;18.960;2023-02-01T21:13:14;65.57;;;33.00;;
37485;SDS011;23341;50.296;18.960;2023-02-01T21:18:19;41.95;;;24.92;;
37485;SDS011;23341;50.296;18.960;2023-02-01T21:23:24;52.15;;;31.35;;
37485;SDS011;23341;50.296;18.960;2023-02-01T21:28:28;51.55;;;28.80;;
37485;SDS011;23341;50.296;18.960;2023-02-01T21:33:33;41.92;;;27.77;;
37485;SDS011;23341;50.296;18.960;2023-02-01T21:38:37;55.08;;;29.40;;
37485;SDS011;23341;50.296;18.960;2023-02-01T21:43:40;66.90;;;35.63;;
37485;SDS011;23341;50.296;18.960;2023-02-01T21:48:46;116.53;;;53.22;;
37485;SDS011;23341;50.296;18.960;2023-02-01T21:54:08;91.00;;;42.60;;
37485;SDS011;23341;50.296;18.960;2023-02-01T21:59:15;88.25;;;41.92;;
37485;SDS011;23341;50.296;18.960;2023-02-01T22:04:21;81.13;;;39.35;;
37485;SDS011;23341;50.296;18.960;2023-02-01T22:09:25;67.00;;;34.35;;
37485;SDS011;23341;50.296;18.960;2023-02-01T22:14:28;69.65;;;35.40;;
37485;SDS011;23341;50.296;18.960;2023-02-01T22:19:35;65.10;;;35.95;;
37485;SDS011;23341;50.296;18.960;2023-02-01T22:24:38;65.32;;;29.63;;
37485;SDS011;23341;50.296;18.960;2023-02-01T22:29:42;58.97;;;31.33;;
37485;SDS011;23341;50.296;18.960;2023-02-01T22:34:47;36.42;;;20.25;;
37485;SDS011;23341;50.296;18.960;2023-02-01T22:39:51;47.78;;;21.83;;
37485;SDS011;23341;50.296;18.960;2023-02-01T22:44:56;50.05;;;23.73;;
37485;SDS011;23341;50.296;18.960;2023-02-01T22:50:01;25.45;;;11.73;;
37485;SDS011;23341;50.296;18.960;2023-02-01T22:55:05;20.50;;;12.13;;
37485;SDS011;23341;50.296;18.960;2023-02-01T23:00:09;29.25;;;13.18;;
37485;SDS011;23341;50.296;18.960;2023-02-01T23:05:15;30.45;;;16.13;;
37485;SDS011;23341;50.296;18.960;2023-02-01T23:10:19;18.63;;;10.85;;
37485;SDS011;23341;50.296;18.960;2023-02-01T23:15:23;19.33;;;11.70;;
37485;SDS011;23341;50.296;18.960;2023-02-01T23:20:28;22.88;;;11.15;;
37485;SDS011;23341;50.296;18.960;2023-02-01T23:25:32;17.20;;;10.68;;
37485;SDS011;23341;50.296;18.960;2023-02-01T23:30:36;13.60;;;8.05;;
37485;SDS011;23341;50.296;18.960;2023-02-01T23:35:53;14.43;;;9.20;;
37485;SDS011;23341;50.296;18.960;2023-02-01T23:40:59;11.13;;;9.98;;
37485;SDS011;23341;50.296;18.960;2023-02-01T23:46:04;20.75;;;14.35;;
37485;SDS011;23341;50.296;18.960;2023-02-01T23:51:09;19.10;;;12.65;;
37485;SDS011;23341;50.296;18.960;2023-02-01T23:56:20;27.27;;;17.08;;
